createdAt,value
2022-10-28T00:01:13.481Z,97980.91
2022-10-28T00:03:45.241Z,97976.78
2022-10-28T00:06:14.494Z,97979.50
2022-10-28T00:08:43.022Z,97976.94
2022-10-28T00:11:13.204Z,97970.31
2022-10-28T00:13:43.192Z,97961.00
2022-10-28T00:16:15.323Z,97953.94
2022-10-28T00:18:45.551Z,97961.94
2022-10-28T00:21:16.463Z,97962.22
2022-10-28T00:23:44.880Z,97952.53
2022-10-28T00:26:16.230Z,97958.59
2022-10-28T00:28:45.492Z,97966.81
2022-10-28T00:31:15.370Z,97965.84
2022-10-28T00:33:45.234Z,97965.72
2022-10-28T00:36:16.139Z,97966.56
2022-10-28T00:38:45.711Z,97971.00
2022-10-28T00:41:16.662Z,97962.25
2022-10-28T00:43:46.179Z,97965.63
2022-10-28T00:46:21.801Z,97971.47
2022-10-28T00:48:55.332Z,97966.09
2022-10-28T00:51:24.714Z,97968.72
2022-10-28T00:53:53.400Z,97972.34
2022-10-28T00:56:21.829Z,97959.91
2022-10-28T00:58:50.775Z,97968.09
2022-10-28T01:01:19.136Z,97968.91
2022-10-28T01:03:47.253Z,97957.41
2022-10-28T01:06:16.881Z,97958.28
2022-10-28T01:08:45.011Z,97956.03
2022-10-28T01:11:31.684Z,97962.28
2022-10-28T01:14:13.836Z,97970.34
2022-10-28T01:16:50.071Z,97975.22
2022-10-28T01:19:56.761Z,97974.38
2022-10-28T01:22:27.461Z,97975.22
2022-10-28T01:25:14.070Z,97974.94
2022-10-28T01:28:12.811Z,97976.06
2022-10-28T01:31:05.421Z,97983.53
2022-10-28T01:33:37.301Z,97979.50
2022-10-28T01:36:12.492Z,97982.16
2022-10-28T01:38:46.263Z,97987.16
2022-10-28T01:41:17.633Z,97988.13
2022-10-28T01:43:50.269Z,97982.16
2022-10-28T01:46:20.781Z,97974.13
2022-10-28T01:48:54.464Z,97985.34
2022-10-28T01:51:25.569Z,97973.44
2022-10-28T01:53:55.894Z,97965.53
2022-10-28T01:56:26.622Z,97966.34
2022-10-28T01:58:55.296Z,97968.00
2022-10-28T02:01:24.603Z,97964.13
2022-10-28T02:03:54.461Z,97966.34
2022-10-28T02:06:25.616Z,97973.84
2022-10-28T02:09:07.562Z,97972.44
2022-10-28T02:11:51.961Z,97971.03
2022-10-28T02:14:30.411Z,97967.03
2022-10-28T02:17:03.730Z,97968.69
2022-10-28T02:19:40.851Z,97967.16
2022-10-28T02:22:18.486Z,97959.00
2022-10-28T02:24:53.233Z,97948.88
2022-10-28T02:27:27.845Z,97951.00
2022-10-28T02:30:00.856Z,97953.34
2022-10-28T02:32:32.154Z,97946.13
2022-10-28T02:35:02.765Z,97939.34
2022-10-28T02:37:33.528Z,97945.31
2022-10-28T02:40:05.464Z,97937.53
2022-10-28T02:42:37.390Z,97941.44
2022-10-28T02:45:09.893Z,97939.19
2022-10-28T02:47:39.869Z,97933.66
2022-10-28T02:50:12.266Z,97935.31
2022-10-28T02:52:41.783Z,97931.03
2022-10-28T02:55:10.454Z,97927.84
2022-10-28T02:57:41.086Z,97930.59
2022-10-28T03:00:11.973Z,97930.59
2022-10-28T03:02:40.176Z,97926.44
2022-10-28T03:05:10.835Z,97922.59
2022-10-28T03:07:39.054Z,97929.22
2022-10-28T03:10:08.295Z,97932.97
2022-10-28T03:12:36.483Z,97932.00
2022-10-28T03:15:04.834Z,97937.53
2022-10-28T03:17:33.074Z,97942.38
2022-10-28T03:20:01.542Z,97948.88
2022-10-28T03:22:31.165Z,97944.47
2022-10-28T03:24:59.425Z,97939.06
2022-10-28T03:27:27.594Z,97936.97
2022-10-28T03:29:55.855Z,97943.50
2022-10-28T03:32:24.019Z,97941.28
2022-10-28T03:34:52.218Z,97934.22
2022-10-28T03:37:20.406Z,97936.16
2022-10-28T03:39:50.045Z,97933.25
2022-10-28T03:42:18.235Z,97930.31
2022-10-28T03:44:46.492Z,97931.31
2022-10-28T03:47:14.643Z,97924.09
2022-10-28T03:49:42.936Z,97912.31
2022-10-28T03:52:11.045Z,97915.63
2022-10-28T03:54:39.129Z,97916.31
2022-10-28T03:57:08.674Z,97916.88
2022-10-28T03:59:36.734Z,97919.91
2022-10-28T04:02:05.155Z,97925.19
2022-10-28T04:04:33.274Z,97928.50
2022-10-28T04:07:01.462Z,97925.56
2022-10-28T04:09:29.545Z,97934.84
2022-10-28T04:11:57.758Z,97936.91
2022-10-28T04:14:27.306Z,97933.59
2022-10-28T04:16:55.462Z,97930.38
2022-10-28T04:19:23.630Z,97930.09
2022-10-28T04:21:51.765Z,97933.56
2022-10-28T04:24:19.892Z,97928.69
2022-10-28T04:26:48.105Z,97931.84
2022-10-28T04:29:16.292Z,97926.06
2022-10-28T04:31:48.634Z,97934.09
2022-10-28T04:34:19.528Z,97936.44
2022-10-28T04:36:47.692Z,97934.09
2022-10-28T04:39:15.932Z,97934.78
2022-10-28T04:41:44.102Z,97934.25
2022-10-28T04:44:12.171Z,97931.91
2022-10-28T04:46:40.903Z,97930.38
2022-10-28T04:49:10.553Z,97926.91
2022-10-28T04:51:38.738Z,97927.91
2022-10-28T04:54:07.034Z,97929.28
2022-10-28T04:56:35.302Z,97928.19
2022-10-28T04:59:03.450Z,97932.72
2022-10-28T05:01:31.753Z,97934.69
2022-10-28T05:03:59.952Z,97932.88
2022-10-28T05:06:29.653Z,97932.72
2022-10-28T05:08:57.820Z,97932.19
2022-10-28T05:11:26.263Z,97944.53
2022-10-28T05:13:54.357Z,97942.84
2022-10-28T05:16:22.572Z,97944.81
2022-10-28T05:18:50.687Z,97947.44
2022-10-28T05:21:19.033Z,97955.47
2022-10-28T05:23:48.682Z,97953.00
2022-10-28T05:26:16.953Z,97946.47
2022-10-28T05:28:45.272Z,97949.41
2022-10-28T05:31:13.406Z,97948.59
2022-10-28T05:33:41.592Z,97946.38
2022-10-28T05:36:09.845Z,97941.09
2022-10-28T05:38:38.202Z,97943.22
2022-10-28T05:41:08.016Z,97952.22
2022-10-28T05:43:36.247Z,97944.31
2022-10-28T05:46:05.238Z,97939.72
2022-10-28T05:48:33.422Z,97942.09
2022-10-28T05:51:01.471Z,97943.63
2022-10-28T05:53:29.606Z,97945.72
2022-10-28T05:55:57.714Z,97943.63
2022-10-28T05:58:27.260Z,97940.28
2022-10-28T06:00:55.373Z,97935.84
2022-10-28T06:03:28.523Z,97941.09
2022-10-28T06:05:59.265Z,97936.31
2022-10-28T06:08:27.592Z,97936.50
2022-10-28T06:10:54.857Z,97939.78
2022-10-28T06:13:24.822Z,97946.09
2022-10-28T06:15:53.163Z,97947.56
2022-10-28T06:18:21.650Z,97945.94
2022-10-28T06:20:54.238Z,97952.06
2022-10-28T06:23:22.814Z,97945.81
2022-10-28T06:25:51.041Z,97957.91
2022-10-28T06:28:19.321Z,97960.72
2022-10-28T06:30:48.874Z,97964.47
2022-10-28T06:33:17.025Z,97962.75
2022-10-28T06:35:45.151Z,97965.91
2022-10-28T06:38:13.323Z,97972.03
2022-10-28T06:40:41.387Z,97969.38
2022-10-28T06:43:11.215Z,97974.53
2022-10-28T06:45:39.346Z,97973.84
2022-10-28T06:48:11.841Z,97978.97
2022-10-28T06:50:40.244Z,97986.59
2022-10-28T06:53:08.387Z,97986.28
2022-10-28T06:55:36.488Z,97985.50
2022-10-28T06:58:05.640Z,97989.56
2022-10-28T07:00:34.997Z,97997.75
2022-10-28T07:03:03.395Z,98002.50
2022-10-28T07:05:33.096Z,98021.31
2022-10-28T07:08:01.135Z,98015.97
2022-10-28T07:10:29.330Z,98022.81
2022-10-28T07:12:57.792Z,98027.03
2022-10-28T07:15:26.207Z,98026.47
2022-10-28T07:17:55.196Z,98034.97
2022-10-28T07:20:24.200Z,98035.63
2022-10-28T07:22:58.345Z,98042.59
2022-10-28T07:25:26.869Z,98053.38
2022-10-28T07:27:55.415Z,98046.25
2022-10-28T07:30:23.941Z,98042.91
2022-10-28T07:32:52.495Z,98029.63
2022-10-28T07:35:21.477Z,98036.59
2022-10-28T07:37:49.506Z,98032.81
2022-10-28T07:40:19.669Z,98031.28
2022-10-28T07:42:47.785Z,98041.91
2022-10-28T07:45:18.227Z,98039.78
2022-10-28T07:47:46.604Z,98036.94
2022-10-28T07:50:15.272Z,98041.06
2022-10-28T07:52:43.565Z,98040.72
2022-10-28T07:55:12.329Z,98051.66
2022-10-28T07:57:41.821Z,98054.81
2022-10-28T08:00:10.734Z,98054.03
2022-10-28T08:02:39.023Z,98052.22
2022-10-28T08:05:07.586Z,98061.75
2022-10-28T08:07:38.463Z,98063.88
2022-10-28T08:10:08.223Z,98060.88
2022-10-28T08:12:36.474Z,98065.28
2022-10-28T08:15:09.671Z,98070.09
2022-10-28T08:17:37.761Z,98067.78
2022-10-28T08:20:06.888Z,98058.81
2022-10-28T08:22:35.014Z,98055.63
2022-10-28T08:25:03.348Z,98042.88
2022-10-28T08:27:32.105Z,98038.72
2022-10-28T08:30:00.251Z,98030.75
2022-10-28T08:32:29.790Z,98035.59
2022-10-28T08:34:58.051Z,98033.41
2022-10-28T08:37:26.224Z,98028.00
2022-10-28T08:39:54.454Z,98027.34
2022-10-28T08:42:32.343Z,98032.63
2022-10-28T08:45:15.935Z,98027.38
2022-10-28T08:47:53.045Z,98025.38
2022-10-28T08:50:24.105Z,98025.13
2022-10-28T08:52:55.956Z,98026.84
2022-10-28T08:55:27.738Z,98023.84
2022-10-28T08:57:58.908Z,98019.66
2022-10-28T09:00:28.988Z,98005.75
2022-10-28T09:03:04.516Z,97989.09
2022-10-28T09:05:32.821Z,97970.34
2022-10-28T09:08:02.460Z,97971.81
2022-10-28T09:10:51.192Z,97964.31
2022-10-28T09:13:26.226Z,97960.44
2022-10-28T09:16:00.965Z,97968.84
2022-10-28T09:18:46.477Z,97963.94
2022-10-28T09:21:19.182Z,97976.00
2022-10-28T09:23:51.439Z,97987.28
2022-10-28T09:26:26.010Z,97982.28
2022-10-28T09:29:00.885Z,97979.84
2022-10-28T09:31:35.937Z,97974.63
2022-10-28T09:34:14.449Z,97980.09
2022-10-28T09:36:45.186Z,97972.59
2022-10-28T09:39:18.255Z,97981.31
2022-10-28T09:41:47.455Z,97978.16
2022-10-28T09:44:18.910Z,97982.84
2022-10-28T09:46:48.615Z,97989.19
2022-10-28T09:49:20.601Z,97989.75
2022-10-28T09:51:52.181Z,97985.25
2022-10-28T09:54:25.971Z,97980.34
2022-10-28T09:56:54.147Z,97977.94
2022-10-28T09:59:22.259Z,97974.66
2022-10-28T10:01:50.474Z,97966.06
2022-10-28T10:04:22.239Z,97967.09
2022-10-28T10:06:52.389Z,97963.88
2022-10-28T10:09:24.467Z,97954.22
2022-10-28T10:11:54.872Z,97941.19
2022-10-28T10:14:27.328Z,97938.34
2022-10-28T10:17:00.940Z,97942.44
2022-10-28T10:19:59.791Z,97936.28
2022-10-28T10:22:31.554Z,97948.03
2022-10-28T10:25:00.038Z,97942.13
2022-10-28T10:27:29.101Z,97948.09
2022-10-28T10:29:58.285Z,97943.78
2022-10-28T10:32:27.933Z,97944.84
2022-10-28T10:35:02.974Z,97940.47
2022-10-28T10:37:32.306Z,97939.78
2022-10-28T10:40:07.158Z,97938.56
2022-10-28T10:42:42.548Z,97942.53
2022-10-28T10:45:25.799Z,97945.84
2022-10-28T10:48:14.860Z,97942.97
2022-10-28T10:50:45.572Z,97934.69
2022-10-28T10:53:25.569Z,97928.13
2022-10-28T10:55:59.332Z,97922.59
2022-10-28T10:58:29.718Z,97910.66
2022-10-28T11:00:59.791Z,97916.44
2022-10-28T11:03:30.356Z,97912.53
2022-10-28T11:08:50.736Z,97903.84
2022-10-28T11:11:21.559Z,97892.84
2022-10-28T11:13:50.819Z,97888.91
2022-10-28T11:16:21.196Z,97891.88
2022-10-28T11:18:51.073Z,97891.81
2022-10-28T11:21:43.172Z,97889.97
2022-10-28T11:24:31.402Z,97878.22
2022-10-28T11:27:08.152Z,97886.56
2022-10-28T11:29:36.660Z,97881.59
2022-10-28T11:32:17.069Z,97885.38
2022-10-28T11:35:12.027Z,97881.50
2022-10-28T11:37:52.508Z,97877.19
2022-10-28T11:40:31.087Z,97879.56
2022-10-28T11:43:08.820Z,97873.78
2022-10-28T11:45:42.938Z,97883.78
2022-10-28T11:48:21.540Z,97876.41
2022-10-28T11:51:00.002Z,97878.66
2022-10-28T11:54:09.546Z,97885.09
2022-10-28T11:56:41.178Z,97879.94
2022-10-28T11:59:32.819Z,97875.81
2022-10-28T12:02:10.855Z,97873.06
2022-10-28T12:04:49.993Z,97874.25
2022-10-28T12:07:40.889Z,97869.25
2022-10-28T12:10:19.736Z,97868.44
2022-10-28T12:12:55.154Z,97873.22
2022-10-28T12:15:30.262Z,97868.19
2022-10-28T12:18:01.991Z,97860.63
2022-10-28T12:20:33.158Z,97859.44
2022-10-28T12:23:03.589Z,97867.53
2022-10-28T12:25:34.858Z,97854.03
2022-10-28T12:28:07.868Z,97846.78
2022-10-28T12:30:38.331Z,97838.41
2022-10-28T12:33:09.311Z,97834.53
2022-10-28T12:35:39.792Z,97824.47
2022-10-28T12:38:12.928Z,97825.28
2022-10-28T12:40:45.462Z,97831.38
2022-10-28T12:43:19.817Z,97821.00
2022-10-28T12:45:50.148Z,97825.31
2022-10-28T12:48:21.608Z,97826.28
2022-10-28T12:50:53.671Z,97829.84
2022-10-28T12:53:36.167Z,97820.84
2022-10-28T12:56:08.896Z,97815.69
2022-10-28T12:58:44.131Z,97815.63
2022-10-28T13:01:14.957Z,97820.31
2022-10-28T13:03:43.987Z,97821.13
2022-10-28T13:06:23.264Z,97813.78
2022-10-28T13:09:19.193Z,97811.47
2022-10-28T13:11:59.260Z,97810.31
2022-10-28T13:14:46.818Z,97811.72
2022-10-28T13:17:28.963Z,97803.22
2022-10-28T13:20:05.495Z,97809.06
2022-10-28T13:23:10.442Z,97806.03
2022-10-28T13:25:46.368Z,97800.78
2022-10-28T13:28:16.011Z,97802.72
2022-10-28T13:30:55.919Z,97800.06
2022-10-28T13:33:26.510Z,97800.16
2022-10-28T13:35:55.255Z,97801.47
2022-10-28T13:38:26.113Z,97804.63
2022-10-28T13:41:31.017Z,97803.31
2022-10-28T13:44:19.061Z,97797.75
2022-10-28T13:47:27.450Z,97800.53
2022-10-28T13:50:42.837Z,97786.94
2022-10-28T13:53:43.056Z,97810.44
2022-10-28T13:56:23.414Z,97795.38
2022-10-28T13:58:54.463Z,97795.03
2022-10-28T14:02:01.398Z,97802.25
2022-10-28T14:04:39.757Z,97804.53
2022-10-28T14:07:24.224Z,97788.72
2022-10-28T14:09:58.737Z,97782.88
2022-10-28T14:12:30.814Z,97783.81
2022-10-28T14:15:06.668Z,97779.41
2022-10-28T14:17:40.809Z,97777.91
2022-10-28T14:20:24.516Z,97771.19
2022-10-28T14:22:54.777Z,97780.25
2022-10-28T14:26:02.297Z,97782.16
2022-10-28T14:28:53.771Z,97778.09
2022-10-28T14:31:39.163Z,97780.13
2022-10-28T14:34:44.398Z,97774.81
2022-10-28T14:37:48.997Z,97779.13
2022-10-28T14:40:25.505Z,97781.38
2022-10-28T14:43:02.186Z,97779.78
2022-10-28T14:45:38.444Z,97781.63
2022-10-28T14:48:33.927Z,97788.22
2022-10-28T14:51:04.166Z,97782.03
2022-10-28T14:53:35.194Z,97771.78
2022-10-28T14:56:10.263Z,97786.00
2022-10-28T14:58:44.043Z,97793.19
2022-10-28T15:01:36.474Z,97800.59
2022-10-28T15:04:08.027Z,97796.28
2022-10-28T15:06:39.584Z,97790.66
2022-10-28T15:09:18.935Z,97791.47
2022-10-28T15:11:52.006Z,97788.38
2022-10-28T15:14:35.062Z,97792.88
2022-10-28T15:17:12.426Z,97801.88
2022-10-28T15:19:41.386Z,97801.78
2022-10-28T15:22:20.043Z,97798.25
2022-10-28T15:25:02.151Z,97797.59
2022-10-28T15:27:34.203Z,97795.88
2022-10-28T15:30:03.256Z,97784.75
2022-10-28T15:32:36.502Z,97782.72
2022-10-28T15:35:38.400Z,97776.53
2022-10-28T15:38:32.942Z,97771.50
2022-10-28T15:41:01.733Z,97771.69
2022-10-28T15:43:32.795Z,97771.25
2022-10-28T15:46:11.734Z,97767.34
2022-10-28T15:48:40.595Z,97775.88
2022-10-28T15:51:16.967Z,97776.66
2022-10-28T15:53:46.361Z,97778.84
2022-10-28T15:56:25.193Z,97784.72
2022-10-28T15:59:10.564Z,97783.41
2022-10-28T16:01:40.351Z,97791.53
2022-10-28T16:04:45.536Z,97782.41
2022-10-28T16:07:14.531Z,97799.03
2022-10-28T16:09:47.112Z,97788.69
2022-10-28T16:12:17.325Z,97793.47
2022-10-28T16:14:49.201Z,97792.19
2022-10-28T16:17:20.235Z,97786.22
2022-10-28T16:19:53.316Z,97784.75
2022-10-28T16:22:24.046Z,97793.69
2022-10-28T16:24:53.356Z,97792.00
2022-10-28T16:27:23.816Z,97793.94
2022-10-28T16:29:54.493Z,97798.94
2022-10-28T16:32:30.808Z,97802.69
2022-10-28T16:35:01.835Z,97809.56
2022-10-28T16:37:32.242Z,97804.53
2022-10-28T16:40:01.642Z,97814.00
2022-10-28T16:42:33.401Z,97817.78
2022-10-28T16:45:08.465Z,97828.41
2022-10-28T16:47:37.850Z,97827.41
2022-10-28T16:50:07.661Z,97832.59
2022-10-28T16:52:36.942Z,97843.16
2022-10-28T16:55:14.049Z,97849.75
2022-10-28T16:57:43.042Z,97868.44
2022-10-28T17:00:15.393Z,97861.16
2022-10-28T17:02:51.146Z,97854.47
2022-10-28T17:05:24.742Z,97869.16
2022-10-28T17:07:56.394Z,97860.25
2022-10-28T17:10:26.244Z,97872.94
2022-10-28T17:12:55.670Z,97885.63
2022-10-28T17:15:26.245Z,97896.78
2022-10-28T17:17:58.735Z,97896.97
2022-10-28T17:20:30.133Z,97896.03
2022-10-28T17:22:59.885Z,97900.38
2022-10-28T17:25:29.263Z,97886.38
2022-10-28T17:27:58.377Z,97888.38
2022-10-28T17:30:28.816Z,97890.88
2022-10-28T17:32:57.922Z,97891.59
2022-10-28T17:35:27.525Z,97883.66
2022-10-28T17:37:57.694Z,97881.38
2022-10-28T17:40:26.645Z,97875.91
2022-10-28T17:42:54.887Z,97874.94
2022-10-28T17:45:23.207Z,97868.63
2022-10-28T17:47:52.777Z,97876.75
2022-10-28T17:50:20.926Z,97865.69
2022-10-28T17:52:49.152Z,97877.28
2022-10-28T17:55:17.402Z,97873.00
2022-10-28T17:57:45.908Z,97866.84
2022-10-28T18:00:15.826Z,97860.88
2022-10-28T18:02:44.107Z,97852.44
2022-10-28T18:05:13.734Z,97851.72
2022-10-28T18:07:42.053Z,97844.22
2022-10-28T18:10:11.245Z,97856.09
2022-10-28T18:12:39.926Z,97852.38
2022-10-28T18:15:09.691Z,97839.41
2022-10-28T18:17:37.743Z,97839.97
2022-10-28T18:20:06.803Z,97833.63
2022-10-28T18:22:36.325Z,97834.56
2022-10-28T18:25:04.726Z,97847.53
2022-10-28T18:27:33.302Z,97848.38
2022-10-28T18:30:01.462Z,97842.78
2022-10-28T18:32:29.555Z,97835.97
2022-10-28T18:34:57.800Z,97849.63
2022-10-28T18:37:27.802Z,97840.50
2022-10-28T18:39:57.422Z,97843.53
2022-10-28T18:42:25.546Z,97846.53
2022-10-28T18:44:58.659Z,97843.72
2022-10-28T18:47:27.033Z,97838.94
2022-10-28T18:49:55.612Z,97841.09
2022-10-28T18:52:23.720Z,97835.78
2022-10-28T18:54:51.814Z,97839.59
2022-10-28T18:57:22.295Z,97831.47
2022-10-28T19:02:44.706Z,97825.06
2022-10-28T19:05:15.602Z,97823.47
2022-10-28T19:07:43.764Z,97800.47
2022-10-28T19:10:12.015Z,97801.25
2022-10-28T19:12:44.947Z,97804.06
2022-10-28T19:15:17.247Z,97799.69
2022-10-28T19:17:45.345Z,97796.19
2022-10-28T19:20:13.504Z,97793.06
2022-10-28T19:22:41.728Z,97800.03
2022-10-28T19:25:10.281Z,97804.34
2022-10-28T19:27:38.433Z,97807.47
2022-10-28T19:30:12.455Z,97799.84
2022-10-28T19:32:41.806Z,97806.19
2022-10-28T19:35:10.766Z,97808.84
2022-10-28T19:37:39.149Z,97815.03
2022-10-28T19:40:08.422Z,97815.41
2022-10-28T19:42:38.508Z,97812.31
2022-10-28T19:45:09.856Z,97810.97
2022-10-28T19:47:38.025Z,97813.72
2022-10-28T19:50:06.792Z,97827.56
2022-10-28T19:52:35.208Z,97818.16
2022-10-28T19:55:03.383Z,97823.16
2022-10-28T19:57:31.612Z,97825.41
2022-10-28T19:59:59.725Z,97830.13
2022-10-28T20:02:29.304Z,97821.38
2022-10-28T20:04:57.564Z,97831.34
2022-10-28T20:07:25.676Z,97837.22
2022-10-28T20:09:54.634Z,97827.94
2022-10-28T20:12:22.741Z,97840.03
2022-10-28T20:14:51.097Z,97846.56
2022-10-28T20:17:20.977Z,97843.28
2022-10-28T20:19:50.576Z,97856.69
2022-10-28T20:22:18.712Z,97864.50
2022-10-28T20:24:46.912Z,97861.22
2022-10-28T20:27:15.076Z,97864.06
2022-10-28T20:29:43.225Z,97858.47
2022-10-28T20:32:11.372Z,97866.47
2022-10-28T20:34:39.585Z,97867.13
2022-10-28T20:37:09.045Z,97868.97
2022-10-28T20:39:37.243Z,97871.13
2022-10-28T20:42:05.525Z,97866.50
2022-10-28T20:44:33.658Z,97869.81
2022-10-28T20:47:01.737Z,97870.50
2022-10-28T20:49:29.943Z,97856.06
2022-10-28T20:51:58.053Z,97866.66
2022-10-28T20:54:27.612Z,97868.31
2022-10-28T20:56:55.686Z,97875.09
2022-10-28T20:59:24.053Z,97880.56
2022-10-28T21:01:52.321Z,97870.94
2022-10-28T21:04:20.856Z,97876.56
2022-10-28T21:06:49.003Z,97885.34
2022-10-28T21:09:17.145Z,97872.94
2022-10-28T21:11:47.223Z,97870.44
2022-10-28T21:14:15.384Z,97862.50
2022-10-28T21:16:43.522Z,97858.72
2022-10-28T21:19:11.762Z,97850.97
2022-10-28T21:21:39.867Z,97840.97
2022-10-28T21:24:08.436Z,97853.94
2022-10-28T21:26:36.576Z,97856.06
2022-10-28T21:29:06.264Z,97843.16
2022-10-28T21:31:34.373Z,97845.06
2022-10-28T21:34:05.757Z,97850.16
2022-10-28T21:36:36.486Z,97841.97
2022-10-28T21:39:04.634Z,97842.38
2022-10-28T21:41:32.983Z,97840.66
2022-10-28T21:44:01.105Z,97834.28
2022-10-28T21:46:30.646Z,97838.53
2022-10-28T21:48:58.743Z,97848.09
2022-10-28T21:51:26.912Z,97839.44
2022-10-28T21:53:55.042Z,97837.78
2022-10-28T21:56:23.202Z,97834.13
2022-10-28T21:58:52.269Z,97830.16
2022-10-28T22:01:22.579Z,97830.50
2022-10-28T22:03:53.006Z,97833.16
2022-10-28T22:06:21.203Z,97833.72
2022-10-28T22:08:49.472Z,97842.50
2022-10-28T22:11:19.198Z,97840.84
2022-10-28T22:13:47.813Z,97836.22
2022-10-28T22:16:17.491Z,97848.56
2022-10-28T22:18:46.160Z,97851.63
2022-10-28T22:21:17.615Z,97839.38
2022-10-28T22:23:46.167Z,97836.31
2022-10-28T22:26:16.374Z,97845.31
2022-10-28T22:28:44.893Z,97851.34
2022-10-28T22:31:14.554Z,97855.81
2022-10-28T22:33:42.866Z,97853.88
2022-10-28T22:36:12.596Z,97849.75
2022-10-28T22:38:42.261Z,97853.72
2022-10-28T22:41:14.340Z,97844.94
2022-10-28T22:43:43.197Z,97849.44
2022-10-28T22:46:11.413Z,97846.28
2022-10-28T22:48:39.511Z,97845.28
2022-10-28T22:51:09.527Z,97848.25
2022-10-28T22:53:39.043Z,97856.84
2022-10-28T22:56:10.342Z,97850.56
2022-10-28T22:58:38.482Z,97852.19
2022-10-28T23:01:08.438Z,97851.53
2022-10-28T23:03:37.670Z,97847.03
2022-10-28T23:06:06.262Z,97855.09
2022-10-28T23:08:34.820Z,97853.78
2022-10-28T23:11:03.135Z,97851.59
2022-10-28T23:13:32.782Z,97851.78
2022-10-28T23:16:04.812Z,97858.84
2022-10-28T23:18:33.123Z,97863.16
2022-10-28T23:21:05.985Z,97871.63
2022-10-28T23:23:34.190Z,97873.84
2022-10-28T23:26:02.329Z,97884.41
2022-10-28T23:28:30.682Z,97875.34
2022-10-28T23:31:02.815Z,97884.06
2022-10-28T23:33:31.869Z,97895.22
2022-10-28T23:36:01.112Z,97889.59
2022-10-28T23:38:29.783Z,97883.44
2022-10-28T23:40:58.865Z,97881.09
2022-10-28T23:43:27.236Z,97878.78
2022-10-28T23:45:55.590Z,97880.53
2022-10-28T23:48:26.144Z,97885.00
2022-10-28T23:50:54.632Z,97890.25
2022-10-28T23:53:23.292Z,97883.81
2022-10-28T23:55:52.043Z,97886.47
2022-10-28T23:58:21.738Z,97892.88
